createdAt,value
2023-03-26T07:23:24.139Z,5.22
2023-03-26T08:04:25.608Z,3.28
2023-03-26T08:07:08.343Z,3.20
2023-03-26T08:38:06.608Z,3.00
2023-03-26T08:41:14.467Z,2.90
2023-03-26T08:47:16.471Z,2.80
2023-03-26T08:56:06.848Z,2.70
2023-03-26T09:11:39.572Z,2.78
2023-03-26T11:42:37.718Z,0.53
2023-03-26T11:45:21.026Z,0.60
2023-03-26T11:47:58.558Z,0.40
2023-03-26T11:50:33.139Z,0.70
2023-03-26T11:53:07.674Z,1.00
2023-03-26T11:55:35.745Z,1.20
2023-03-26T11:58:06.308Z,0.70
2023-03-26T12:00:34.383Z,1.10
2023-03-26T12:03:02.316Z,0.70
2023-03-26T12:05:36.574Z,0.60
2023-03-26T12:08:14.537Z,0.57
2023-03-26T12:11:01.689Z,0.80
2023-03-26T12:13:39.352Z,0.70
2023-03-26T12:16:18.356Z,0.57
2023-03-26T12:18:47.716Z,1.15
2023-03-26T12:21:17.152Z,0.80
2023-03-26T12:23:44.697Z,1.15
2023-03-26T12:26:15.159Z,0.65
2023-03-26T12:28:50.609Z,1.05
2023-03-26T12:31:19.505Z,0.77
2023-03-26T12:33:54.023Z,0.60
2023-03-26T12:36:30.517Z,0.38
2023-03-26T12:39:42.820Z,0.50
2023-03-26T12:43:40.204Z,0.57
2023-03-26T12:44:59.121Z,0.80
2023-03-26T12:47:59.726Z,0.70
2023-03-26T12:50:34.190Z,0.60
2023-03-26T12:55:56.356Z,0.90
2023-03-26T12:58:43.788Z,0.63
2023-03-26T13:01:16.322Z,0.73
2023-03-26T13:04:03.639Z,0.50
2023-03-26T13:06:59.180Z,0.65
2023-03-26T13:09:36.073Z,0.65
2023-03-26T13:12:33.949Z,0.57
2023-03-26T13:15:15.163Z,0.70
2023-03-26T13:18:00.543Z,0.45
2023-03-26T13:21:02.254Z,0.65
2023-03-26T13:23:33.086Z,0.50
2023-03-26T13:26:14.389Z,0.40
2023-03-26T13:28:50.929Z,0.95
2023-03-26T13:31:36.956Z,0.63
2023-03-26T13:34:10.952Z,0.37
2023-03-26T13:39:15.047Z,0.70
2023-03-26T13:42:10.076Z,0.47
2023-03-26T13:44:44.813Z,0.65
2023-03-26T13:47:49.032Z,0.55
2023-03-26T13:50:26.352Z,1.55
2023-03-26T13:53:03.285Z,1.05
